Time;durP1;ratioP1;P1;durP2;ratioP2;P2;SDS_P1;SDS_P2;PMS_P1;PMS_P2;Temp;Humidity;BMP_temperature;BMP_pressure;BME280_temperature;BME280_humidity;BME280_pressure;Samples;Min_cycle;Max_cycle;Signal;HPM_P1;HPM_P2
2021/03/08 00:00:18;;;;;;;5.10;0.83;;;;;;;-0.49;58.60;101319.16;5052740;28;20310;-65
2021/03/08 00:02:46;;;;;;;0.20;0.20;;;;;;;-0.52;58.48;101319.22;5049141;28;20291;-65
2021/03/08 00:05:14;;;;;;;5.67;0.50;;;;;;;-0.49;59.45;101321.78;5052852;28;20635;-65
2021/03/08 00:07:45;;;;;;;35.03;14.10;;;;;;;-0.52;59.79;101333.25;5049585;28;20229;-65
2021/03/08 00:10:14;;;;;;;4.27;2.20;;;;;;;-0.53;59.27;101334.16;5052126;28;20677;-65
2021/03/08 00:12:42;;;;;;;1.00;0.80;;;;;;;-0.53;59.29;101330.66;5059513;28;20703;-65
2021/03/08 00:15:11;;;;;;;0.60;0.60;;;;;;;-0.78;59.72;101277.34;5069838;28;20252;-65
2021/03/08 00:17:38;;;;;;;0.20;0.20;;;;;;;-0.55;59.69;101328.03;5065065;28;20201;-65
2021/03/08 00:20:08;;;;;;;0.60;0.60;;;;;;;-0.57;58.75;101329.81;5056210;28;20243;-67
2021/03/08 00:22:35;;;;;;;1.13;0.73;;;;;;;-0.48;59.86;101334.97;5055522;28;20207;-65
2021/03/08 00:25:05;;;;;;;0.20;0.20;;;;;;;-0.45;60.42;101337.56;5063810;28;20198;-65
2021/03/08 00:27:32;;;;;;;0.53;0.40;;;;;;;-0.51;58.78;101335.00;5052624;28;20265;-67
2021/03/08 00:29:59;;;;;;;0.73;0.40;;;;;;;-0.50;59.31;101336.75;5053253;28;20203;-64
2021/03/08 00:32:26;;;;;;;0.30;0.30;;;;;;;-0.51;59.19;101344.69;5061494;28;20249;-64
2021/03/08 00:34:54;;;;;;;0.77;0.77;;;;;;;-0.49;60.26;101343.78;5069474;28;20205;-65
2021/03/08 00:37:21;;;;;;;0.57;0.57;;;;;;;-0.74;59.93;101308.03;5068535;28;20605;-66
2021/03/08 00:39:48;;;;;;;0.30;0.30;;;;;;;-0.48;59.54;101352.56;5069713;28;20199;-64
2021/03/08 00:42:16;;;;;;;1.50;0.33;;;;;;;-0.51;59.97;101356.09;5068378;28;20194;-65
2021/03/08 00:44:43;;;;;;;2.57;0.40;;;;;;;-0.54;59.92;101364.06;5056482;28;20191;-64
2021/03/08 00:47:11;;;;;;;1.37;0.60;;;;;;;-0.48;60.07;101363.09;5068290;28;20664;-66
2021/03/08 00:49:39;;;;;;;0.40;0.20;;;;;;;-0.68;60.33;101322.03;5069391;28;20216;-66
2021/03/08 00:52:06;;;;;;;1.73;1.63;;;;;;;-0.54;59.51;101358.78;5071094;28;20218;-66
2021/03/08 00:54:33;;;;;;;52.00;31.17;;;;;;;-0.56;59.58;101357.94;5055103;28;20300;-66
2021/03/08 00:57:01;;;;;;;9.60;6.50;;;;;;;-0.52;59.53;101359.63;5050668;28;20771;-65
2021/03/08 00:59:38;;;;;;;2.50;0.70;;;;;;;-0.50;59.97;101365.75;5071293;28;20204;-65
2021/03/08 01:02:06;;;;;;;1.07;0.40;;;;;;;-0.74;59.17;101331.78;5065805;28;20191;-66
2021/03/08 01:04:34;;;;;;;1.13;0.70;;;;;;;-0.58;59.89;101374.66;5043355;28;20718;-65
2021/03/08 01:07:01;;;;;;;1.17;0.40;;;;;;;-0.57;60.86;101372.00;5072388;28;20736;-65
2021/03/08 01:09:29;;;;;;;0.37;0.30;;;;;;;-0.65;60.69;101373.84;5049764;28;20220;-65
2021/03/08 01:11:57;;;;;;;0.10;0.10;;;;;;;-0.63;60.99;101378.22;5050136;28;20580;-65
2021/03/08 01:14:29;;;;;;;3.77;0.20;;;;;;;-0.66;60.85;101385.28;5046795;28;20253;-65
2021/03/08 01:16:57;;;;;;;2.77;0.53;;;;;;;-0.69;60.52;101388.84;5068024;28;20726;-65
2021/03/08 01:19:24;;;;;;;0.03;0.03;;;;;;;-0.70;61.75;101386.22;5058728;28;20792;-65
2021/03/08 01:21:51;;;;;;;0.30;0.30;;;;;;;-0.65;62.72;101390.53;5065371;28;20552;-65
2021/03/08 01:24:18;;;;;;;0.13;0.13;;;;;;;-0.73;61.59;101391.53;5066769;28;20232;-66
2021/03/08 01:26:45;;;;;;;0.20;0.20;;;;;;;-0.71;62.43;101393.25;5071295;28;20230;-66
2021/03/08 01:29:13;;;;;;;0.13;0.13;;;;;;;-0.75;63.11;101388.91;5072747;28;20203;-67
2021/03/08 01:31:40;;;;;;;0.10;0.10;;;;;;;-0.73;62.98;101402.06;5061749;28;20678;-67
2021/03/08 01:34:08;;;;;;;2.37;0.67;;;;;;;-0.82;63.23;101389.00;5063372;28;20212;-65
2021/03/08 01:36:36;;;;;;;0.10;0.10;;;;;;;-0.81;62.71;101398.66;5064334;28;20242;-65
2021/03/08 01:39:04;;;;;;;0.57;0.10;;;;;;;-0.81;63.31;101390.75;5072825;28;20212;-65
2021/03/08 01:41:31;;;;;;;0.10;0.10;;;;;;;-0.86;62.95;101396.06;5063830;28;20205;-65
2021/03/08 01:43:58;;;;;;;0.10;0.10;;;;;;;-0.86;62.75;101401.34;5072061;28;20285;-65
2021/03/08 01:46:26;;;;;;;361.03;137.63;;;;;;;-0.87;62.92;101398.72;5061023;28;20204;-65
2021/03/08 01:48:53;;;;;;;18.23;7.33;;;;;;;-0.91;63.08;101403.16;5067905;28;20697;-66
2021/03/08 01:51:24;;;;;;;4.57;2.87;;;;;;;-0.86;63.42;101400.47;5062752;28;20229;-67
2021/03/08 01:53:52;;;;;;;254.90;114.63;;;;;;;-0.85;63.51;101412.75;5068629;28;20542;-67
2021/03/08 01:56:21;;;;;;;180.17;60.73;;;;;;;-0.84;63.74;101411.88;5070112;28;20193;-66
2021/03/08 01:58:48;;;;;;;68.83;25.53;;;;;;;-0.81;64.45;101410.06;5068678;28;20610;-66
2021/03/08 02:01:16;;;;;;;16.13;4.73;;;;;;;-0.79;64.19;101412.69;5066101;28;20189;-65
2021/03/08 02:03:43;;;;;;;7.10;2.77;;;;;;;-0.84;64.47;101414.50;5062302;28;20566;-67
2021/03/08 02:06:11;;;;;;;1.83;1.40;;;;;;;-1.03;64.57;101383.03;5063533;28;20242;-67
2021/03/08 02:08:39;;;;;;;2.83;1.37;;;;;;;-0.89;64.52;101419.81;5063306;28;20201;-65
2021/03/08 02:11:06;;;;;;;1.80;0.73;;;;;;;-1.27;64.68;101373.59;5059645;28;20217;-64
2021/03/08 02:14:15;;;;;;;3.03;0.80;;;;;;;-1.00;64.34;101414.63;5058041;28;20198;-65
2021/03/08 02:16:50;;;;;;;0.30;0.30;;;;;;;-1.15;64.29;101409.53;5062772;28;20215;-65
2021/03/08 02:19:43;;;;;;;6.20;0.40;;;;;;;-1.09;63.98;101417.38;5062072;28;20210;-67
2021/03/08 02:22:42;;;;;;;0.47;0.40;;;;;;;-1.25;64.20;101406.09;5051381;28;20196;-67
2021/03/08 02:25:33;;;;;;;0.33;0.33;;;;;;;-1.19;64.80;101423.63;5050690;28;20195;-67
2021/03/08 02:28:29;;;;;;;4.10;0.60;;;;;;;-1.27;63.95;101433.31;5033428;28;20795;-66
2021/03/08 02:31:00;;;;;;;0.50;0.50;;;;;;;-1.22;64.62;101431.56;5043431;28;20206;-67
2021/03/08 02:33:32;;;;;;;0.17;0.17;;;;;;;-1.26;64.41;101428.03;5050698;28;20219;-67
2021/03/08 02:36:04;;;;;;;0.60;0.60;;;;;;;-1.30;64.27;101430.72;5048810;28;20204;-66
2021/03/08 02:38:35;;;;;;;4.53;2.67;;;;;;;-1.23;64.27;101439.44;5047173;28;20289;-67
2021/03/08 02:41:05;;;;;;;0.23;0.23;;;;;;;-1.31;64.13;101431.59;5031752;28;20199;-66
2021/03/08 02:43:36;;;;;;;18.70;13.80;;;;;;;-1.29;63.57;101443.88;5042286;28;20199;-65
2021/03/08 02:46:08;;;;;;;2.07;1.87;;;;;;;-1.25;64.30;101450.00;5041076;28;20654;-65
2021/03/08 02:48:37;;;;;;;0.20;0.20;;;;;;;-1.30;63.88;101444.75;5044488;28;20206;-65
2021/03/08 02:51:07;;;;;;;1.00;0.40;;;;;;;-1.28;64.18;101439.47;5041436;28;20524;-65
2021/03/08 02:53:37;;;;;;;0.67;0.20;;;;;;;-1.27;65.05;101446.50;5037843;28;20203;-65
2021/03/08 02:56:08;;;;;;;0.10;0.10;;;;;;;-1.48;65.59;101425.63;5033909;28;20294;-65
2021/03/08 02:58:38;;;;;;;3.60;0.30;;;;;;;-1.39;65.36;101457.13;5045625;28;20211;-67
2021/03/08 03:01:09;;;;;;;0.30;0.30;;;;;;;-1.43;65.53;101458.94;5045780;28;20672;-66
2021/03/08 03:03:42;;;;;;;0.30;0.27;;;;;;;-1.47;65.31;101464.22;5047537;28;20825;-65
2021/03/08 03:06:11;;;;;;;1.03;0.20;;;;;;;-1.59;64.88;101447.59;5046427;28;20205;-65
2021/03/08 03:08:41;;;;;;;0.87;0.47;;;;;;;-1.48;65.28;101467.75;5045954;28;20210;-67
2021/03/08 03:11:09;;;;;;;0.57;0.50;;;;;;;-1.52;64.80;101472.16;5046146;28;20194;-65
2021/03/08 03:13:38;;;;;;;0.07;0.07;;;;;;;-1.56;65.95;101478.31;5047260;28;20895;-66
2021/03/08 03:16:08;;;;;;;0.20;0.20;;;;;;;-1.65;65.50;101471.34;5032872;28;20207;-67
2021/03/08 03:18:38;;;;;;;0.63;0.40;;;;;;;-1.67;65.17;101480.13;5041041;28;20626;-67
2021/03/08 03:21:07;;;;;;;0.20;0.20;;;;;;;-1.63;65.90;101485.38;5043789;28;20198;-67
2021/03/08 03:23:37;;;;;;;0.67;0.20;;;;;;;-1.65;65.22;101491.53;5046461;28;20210;-67
2021/03/08 03:26:06;;;;;;;0.57;0.30;;;;;;;-1.83;64.81;101463.56;5043095;28;20316;-67
2021/03/08 03:28:35;;;;;;;1.90;0.50;;;;;;;-1.71;64.68;101484.56;5068203;28;20327;-67
2021/03/08 03:31:03;;;;;;;40.80;21.33;;;;;;;-1.70;65.24;101488.94;5054231;28;20198;-67
2021/03/08 03:33:33;;;;;;;10.17;4.57;;;;;;;-1.70;65.18;101488.94;5066534;28;20203;-67
2021/03/08 03:36:01;;;;;;;0.43;0.43;;;;;;;-1.74;65.25;101497.72;5060650;28;20205;-67
2021/03/08 03:38:28;;;;;;;0.50;0.33;;;;;;;-1.78;65.57;101489.88;5054011;28;20194;-67
2021/03/08 03:40:55;;;;;;;1.40;1.30;;;;;;;-1.76;65.31;101496.00;5062740;28;20202;-67
2021/03/08 03:43:23;;;;;;;0.67;0.30;;;;;;;-1.77;65.48;101504.78;5067171;28;20228;-67
2021/03/08 03:45:52;;;;;;;0.37;0.37;;;;;;;-2.05;65.42;101468.06;5056540;28;20204;-66
2021/03/08 03:48:20;;;;;;;1.27;0.50;;;;;;;-2.08;65.32;101448.78;5066904;28;20284;-67
2021/03/08 03:50:48;;;;;;;1.10;1.00;;;;;;;-1.74;64.91;101499.50;5069827;28;20197;-67
2021/03/08 03:53:16;;;;;;;0.20;0.20;;;;;;;-1.72;64.30;101505.63;5050815;28;20230;-67
2021/03/08 03:55:43;;;;;;;3.77;3.37;;;;;;;-1.77;64.72;101503.03;5068937;28;20299;-67
2021/03/08 03:58:18;;;;;;;0.40;0.40;;;;;;;-2.17;64.74;101436.53;5066334;28;21082;-67
2021/03/08 04:00:53;;;;;;;0.27;0.27;;;;;;;-1.93;64.93;101488.16;5068599;28;20206;-67
2021/03/08 04:03:26;;;;;;;0.20;0.20;;;;;;;-1.83;64.86;101505.69;5049524;28;20232;-67
2021/03/08 04:05:57;;;;;;;0.30;0.30;;;;;;;-1.86;64.91;101503.03;5059325;28;20292;-67
2021/03/08 04:08:26;;;;;;;0.30;0.30;;;;;;;-1.85;64.98;101519.69;5068707;28;20203;-67
2021/03/08 04:10:57;;;;;;;2.37;0.60;;;;;;;-1.84;64.61;101514.44;5068069;28;20648;-67
2021/03/08 04:13:29;;;;;;;1.20;0.70;;;;;;;-1.96;64.33;101507.47;5054607;28;20229;-67
2021/03/08 04:15:57;;;;;;;0.10;0.10;;;;;;;-1.79;65.09;101530.22;5037907;28;20215;-67
2021/03/08 04:18:27;;;;;;;0.33;0.30;;;;;;;-1.79;64.93;101523.22;5068835;28;20203;-67
2021/03/08 04:20:58;;;;;;;0.23;0.20;;;;;;;-1.82;64.05;101531.13;5069862;28;20291;-67
2021/03/08 04:23:29;;;;;;;1.50;1.17;;;;;;;-1.81;64.76;101537.25;5068705;28;20239;-67
2021/03/08 04:25:56;;;;;;;0.33;0.33;;;;;;;-1.82;64.84;101535.50;5065681;28;20252;-68
2021/03/08 04:28:25;;;;;;;0.60;0.57;;;;;;;-1.83;64.82;101533.75;5066148;28;20201;-67
2021/03/08 04:30:55;;;;;;;2.00;0.50;;;;;;;-1.99;64.52;101512.75;5060310;28;20674;-67
2021/03/08 04:33:24;;;;;;;0.40;0.40;;;;;;;-1.77;64.91;101536.38;5067699;28;20735;-67
2021/03/08 04:35:53;;;;;;;0.20;0.20;;;;;;;-1.78;64.80;101538.13;5063448;28;20198;-68
2021/03/08 04:38:22;;;;;;;0.40;0.40;;;;;;;-1.80;64.51;101534.63;5073529;28;20588;-67
2021/03/08 04:40:50;;;;;;;1.03;1.00;;;;;;;-2.04;64.20;101504.00;5054678;28;20217;-67
2021/03/08 04:43:18;;;;;;;0.60;0.60;;;;;;;-1.87;64.72;101552.16;5073181;28;20252;-67
2021/03/08 04:45:46;;;;;;;0.33;0.33;;;;;;;-1.92;64.49;101548.69;5072289;28;20267;-67
2021/03/08 04:48:14;;;;;;;262.63;127.10;;;;;;;-1.89;64.20;101563.59;5069267;28;20197;-67
2021/03/08 04:50:42;;;;;;;103.80;32.23;;;;;;;-1.86;64.79;101566.19;5072935;28;20205;-67
2021/03/08 04:53:10;;;;;;;1.10;0.60;;;;;;;-1.95;64.14;101559.22;5068731;28;20236;-67
2021/03/08 04:55:39;;;;;;;0.20;0.20;;;;;;;-1.91;64.44;101570.59;5073277;28;20660;-67
2021/03/08 04:58:06;;;;;;;9.37;6.60;;;;;;;-1.94;64.72;101562.72;5068881;28;20221;-67
2021/03/08 05:00:33;;;;;;;0.60;0.57;;;;;;;-1.89;64.65;101576.75;5071366;28;20315;-67
2021/03/08 05:03:03;;;;;;;0.40;0.40;;;;;;;-2.21;63.87;101540.88;5069808;28;20699;-67
2021/03/08 05:05:32;;;;;;;0.57;0.17;;;;;;;-1.99;63.99;101580.28;5056482;28;20614;-67
2021/03/08 05:08:04;;;;;;;0.27;0.27;;;;;;;-2.09;64.12;101584.72;5072387;28;20551;-67
2021/03/08 05:10:34;;;;;;;0.73;0.27;;;;;;;-2.11;64.58;101588.22;5059969;28;20288;-67
2021/03/08 05:13:06;;;;;;;0.10;0.10;;;;;;;-2.15;63.92;101587.34;5068373;28;20211;-66
2021/03/08 05:15:34;;;;;;;0.30;0.30;;;;;;;-2.17;63.97;101588.22;5057054;28;20215;-67
2021/03/08 05:18:03;;;;;;;0.57;0.30;;;;;;;-2.14;64.68;101590.84;5046953;28;20213;-68
2021/03/08 05:20:31;;;;;;;0.20;0.17;;;;;;;-2.21;64.22;101596.13;5064584;28;20213;-68
2021/03/08 05:23:00;;;;;;;0.50;0.50;;;;;;;-2.23;64.41;101590.00;5071201;28;20633;-67
2021/03/08 05:25:29;;;;;;;0.20;0.20;;;;;;;-2.30;64.29;101590.00;5072170;28;20288;-67
2021/03/08 05:27:57;;;;;;;0.10;0.10;;;;;;;-2.24;64.65;101598.75;5058000;28;20229;-67
2021/03/08 05:30:27;;;;;;;0.33;0.30;;;;;;;-2.26;65.04;101603.16;5070550;28;20205;-66
2021/03/08 05:33:11;;;;;;;0.20;0.20;;;;;;;-2.25;65.67;101606.66;5053557;28;20232;-68
2021/03/08 05:35:42;;;;;;;0.70;0.10;;;;;;;-2.27;65.59;101611.91;5058260;28;20570;-68
2021/03/08 05:38:10;;;;;;;0.40;0.40;;;;;;;-2.31;65.00;101615.44;5041882;28;20643;-67
2021/03/08 05:40:41;;;;;;;1.20;0.20;;;;;;;-2.66;65.28;101569.88;5052248;28;20200;-67
2021/03/08 05:43:10;;;;;;;0.10;0.10;;;;;;;-2.31;65.85;101625.94;5053661;28;20202;-67
2021/03/08 05:45:51;;;;;;;0.30;0.20;;;;;;;-2.37;65.27;101620.69;5070763;28;20838;-67
2021/03/08 05:48:44;;;;;;;0.40;0.40;;;;;;;-2.33;65.62;101627.72;5063777;28;20204;-67
2021/03/08 05:51:29;;;;;;;1299.07;467.17;;;;;;;-2.25;65.87;101625.06;5069816;28;20606;-67
2021/03/08 05:54:14;;;;;;;5.27;4.57;;;;;;;-2.23;66.12;101624.19;5063882;28;20215;-65
2021/03/08 05:57:01;;;;;;;2.77;0.90;;;;;;;-2.11;66.75;101632.97;5058039;28;20218;-65
2021/03/08 05:59:52;;;;;;;3.53;1.13;;;;;;;-2.10;65.28;101624.19;5043346;28;20298;-65
2021/03/08 06:02:53;;;;;;;4.27;0.40;;;;;;;-1.94;66.35;101642.56;5054294;28;20194;-65
2021/03/08 06:05:52;;;;;;;0.43;0.43;;;;;;;-1.78;65.62;101632.00;5059712;28;20208;-65
2021/03/08 06:08:41;;;;;;;74.80;44.67;;;;;;;-1.65;65.04;101639.84;5055528;28;20201;-65
2021/03/08 06:11:10;;;;;;;0.70;0.70;;;;;;;-1.50;65.71;101638.06;5058488;28;20200;-65
2021/03/08 06:13:44;;;;;;;0.80;0.80;;;;;;;-1.41;64.88;101643.28;5054851;28;20785;-65
2021/03/08 06:16:17;;;;;;;8.13;6.00;;;;;;;-1.37;64.68;101637.09;5054208;28;20297;-64
2021/03/08 06:18:48;;;;;;;1.50;0.43;;;;;;;-1.35;64.03;101645.88;5060393;28;20228;-65
2021/03/08 06:21:16;;;;;;;2.43;0.90;;;;;;;-1.23;63.68;101644.94;5055021;28;20274;-65
2021/03/08 06:23:46;;;;;;;0.13;0.13;;;;;;;-1.13;63.77;101646.66;5053012;28;20266;-65
2021/03/08 06:26:14;;;;;;;6.40;1.87;;;;;;;-1.10;63.33;101641.38;5053816;28;20246;-65
2021/03/08 06:28:42;;;;;;;0.97;0.97;;;;;;;-1.09;62.81;101651.91;5059220;28;20736;-65
2021/03/08 06:31:09;;;;;;;0.40;0.40;;;;;;;-1.10;61.92;101651.91;5055512;28;20687;-65
2021/03/08 06:33:52;;;;;;;0.23;0.23;;;;;;;-1.04;62.60;101663.28;5053525;28;20636;-65
2021/03/08 06:36:21;;;;;;;3.07;0.50;;;;;;;-1.04;61.14;101657.13;5057293;28;20314;-65
2021/03/08 06:38:49;;;;;;;1.03;0.37;;;;;;;-0.94;61.48;101666.75;5058670;28;20191;-65
2021/03/08 06:41:16;;;;;;;3.50;0.50;;;;;;;-0.96;61.08;101660.59;5055300;28;20294;-65
2021/03/08 06:43:44;;;;;;;0.50;0.30;;;;;;;-0.79;60.77;101661.38;5055390;28;20191;-65
2021/03/08 06:46:14;;;;;;;0.10;0.10;;;;;;;-0.66;61.06;101673.59;5053703;28;20201;-65
2021/03/08 06:48:42;;;;;;;0.23;0.23;;;;;;;-0.72;59.66;101660.47;5056760;28;20206;-66
2021/03/08 06:51:12;;;;;;;0.67;0.40;;;;;;;-0.51;60.51;101677.91;5064917;28;20222;-66
2021/03/08 06:53:40;;;;;;;0.37;0.20;;;;;;;-0.38;60.04;101682.19;5068447;28;20704;-65
2021/03/08 06:56:14;;;;;;;0.20;0.20;;;;;;;-0.35;60.26;101679.53;5061780;28;20194;-66
2021/03/08 06:58:42;;;;;;;3.03;0.43;;;;;;;-0.35;59.49;101683.91;5061273;28;20230;-66
2021/03/08 07:01:29;;;;;;;6.30;0.27;;;;;;;-0.24;58.63;101682.09;5057005;28;20213;-65
2021/03/08 07:04:14;;;;;;;0.37;0.33;;;;;;;-0.12;59.70;101671.41;5057310;28;20202;-66
2021/03/08 07:06:43;;;;;;;0.30;0.30;;;;;;;-0.12;58.53;101673.19;5059252;28;20202;-66
2021/03/08 07:09:11;;;;;;;3.60;0.40;;;;;;;-0.09;57.46;101667.88;5055251;28;20519;-66
2021/03/08 07:11:39;;;;;;;0.20;0.20;;;;;;;-0.05;57.90;101648.47;5053876;28;20294;-66
2021/03/08 07:14:21;;;;;;;0.50;0.50;;;;;;;0.25;56.82;101700.97;5056255;28;20564;-66
2021/03/08 07:16:48;;;;;;;4.23;0.47;;;;;;;0.35;57.10;101704.44;5055245;28;20212;-65
2021/03/08 07:19:15;;;;;;;0.33;0.33;;;;;;;0.39;56.33;101710.56;5055432;28;21164;-65
2021/03/08 07:21:50;;;;;;;0.60;0.47;;;;;;;0.26;56.55;101688.66;5054553;28;20207;-65
2021/03/08 07:24:18;;;;;;;1.20;0.40;;;;;;;0.46;55.66;101706.94;5057160;28;20213;-65
2021/03/08 07:26:51;;;;;;;0.27;0.27;;;;;;;0.49;55.52;101706.91;5054890;28;21285;-65
2021/03/08 07:29:20;;;;;;;1.67;0.27;;;;;;;0.75;56.81;101712.78;5057559;28;20365;-64
2021/03/08 07:31:49;;;;;;;0.43;0.40;;;;;;;0.93;56.17;101717.84;5054908;28;20217;-65
2021/03/08 07:34:46;;;;;;;1.70;0.20;;;;;;;1.01;55.90;101730.09;5051135;28;20208;-65
2021/03/08 07:37:16;;;;;;;0.40;0.40;;;;;;;1.14;55.21;101729.91;5048516;28;20207;-66
2021/03/08 07:39:52;;;;;;;0.40;0.40;;;;;;;1.06;54.92;101728.28;5035933;28;20289;-66
2021/03/08 07:42:19;;;;;;;2.33;0.30;;;;;;;1.25;55.08;101721.84;5057601;28;20261;-66
2021/03/08 07:44:51;;;;;;;3.60;0.37;;;;;;;1.36;55.65;101727.84;5058449;28;20678;-64
2021/03/08 07:47:21;;;;;;;0.40;0.40;;;;;;;1.44;55.54;101728.63;5055224;28;20744;-66
2021/03/08 07:49:51;;;;;;;1.50;0.30;;;;;;;1.39;54.59;101722.53;5053065;28;20417;-63
2021/03/08 07:52:21;;;;;;;0.50;0.50;;;;;;;1.21;52.03;101731.56;5053089;28;20276;-64
2021/03/08 07:54:53;;;;;;;0.40;0.40;;;;;;;1.32;54.12;101738.50;5034807;28;20209;-64
2021/03/08 07:57:21;;;;;;;0.87;0.50;;;;;;;1.21;53.27;101726.28;5054866;28;20763;-64
2021/03/08 07:59:48;;;;;;;0.33;0.30;;;;;;;1.12;52.58;101726.41;5054499;28;20206;-64
2021/03/08 08:02:15;;;;;;;0.33;0.33;;;;;;;1.20;52.68;101734.25;5058104;28;20272;-65
2021/03/08 08:05:00;;;;;;;1.50;0.47;;;;;;;1.21;52.95;101730.69;5058167;28;20249;-64
2021/03/08 08:07:31;;;;;;;0.43;0.30;;;;;;;1.11;51.52;101744.94;5056221;28;20203;-65
2021/03/08 08:10:03;;;;;;;0.40;0.40;;;;;;;1.35;52.50;101739.34;5042816;28;21047;-65
2021/03/08 08:12:33;;;;;;;1.03;0.40;;;;;;;1.29;52.78;101712.97;5059781;28;20212;-64
2021/03/08 08:15:02;;;;;;;1.13;0.30;;;;;;;1.52;52.91;101731.16;5057475;28;20604;-65
2021/03/08 08:17:33;;;;;;;0.67;0.67;;;;;;;1.49;53.32;101739.13;5056229;28;20835;-64
2021/03/08 08:20:03;;;;;;;0.57;0.53;;;;;;;1.43;52.68;101718.94;5056480;28;20209;-64
2021/03/08 08:22:34;;;;;;;0.70;0.50;;;;;;;1.42;52.35;101741.00;5055723;28;20188;-64
2021/03/08 08:25:05;;;;;;;0.77;0.40;;;;;;;1.27;51.92;101730.66;5055784;28;20287;-65
2021/03/08 08:27:34;;;;;;;0.93;0.40;;;;;;;1.19;51.75;101743.94;5036823;28;20228;-65
2021/03/08 08:30:03;;;;;;;69.83;25.87;;;;;;;1.31;52.36;101748.22;5057186;28;20205;-66
2021/03/08 08:32:48;;;;;;;0.50;0.50;;;;;;;1.32;52.04;101742.03;5055635;28;20219;-66
2021/03/08 08:35:28;;;;;;;1.70;1.17;;;;;;;1.44;54.02;101736.56;5058885;28;20209;-65
2021/03/08 08:38:20;;;;;;;2.97;1.67;;;;;;;1.37;51.96;101742.84;5060212;28;20211;-64
2021/03/08 08:41:18;;;;;;;0.47;0.47;;;;;;;1.59;52.20;101754.00;5056887;28;20800;-65
2021/03/08 08:43:46;;;;;;;3.30;0.80;;;;;;;1.59;52.90;101748.72;5058884;28;20210;-67
2021/03/08 08:46:28;;;;;;;1.27;0.87;;;;;;;1.47;51.03;101743.56;5056346;28;20661;-66
2021/03/08 08:49:07;;;;;;;0.20;0.20;;;;;;;1.61;52.68;101746.91;5059188;28;20218;-63
2021/03/08 08:51:48;;;;;;;2.27;0.77;;;;;;;1.52;51.87;101747.91;5058587;28;21328;-65
2021/03/08 08:54:53;;;;;;;0.40;0.40;;;;;;;1.39;51.09;101751.63;5056229;28;20322;-64
2021/03/08 08:57:21;;;;;;;0.77;0.70;;;;;;;1.19;50.64;101740.44;5057301;28;20564;-65
2021/03/08 09:00:20;;;;;;;1.00;0.60;;;;;;;1.54;51.38;101748.78;5057784;28;20210;-65
2021/03/08 09:02:48;;;;;;;1.70;0.90;;;;;;;1.57;50.63;101760.22;5056707;28;20284;-64
2021/03/08 09:05:41;;;;;;;0.53;0.53;;;;;;;1.42;50.67;101756.88;5055366;28;20210;-65
2021/03/08 09:08:30;;;;;;;0.40;0.40;;;;;;;1.26;50.23;101765.06;5043240;28;20572;-66
2021/03/08 09:11:00;;;;;;;0.40;0.40;;;;;;;1.46;50.96;101758.56;5053841;28;20208;-64
2021/03/08 09:13:28;;;;;;;1.30;0.70;;;;;;;1.62;50.41;101768.97;5056572;28;20247;-63
2021/03/08 09:15:58;;;;;;;0.40;0.40;;;;;;;1.64;49.48;101764.53;5058731;28;20700;-64
2021/03/08 09:18:34;;;;;;;2.07;0.40;;;;;;;1.58;49.73;101761.97;5053299;28;20401;-66
2021/03/08 09:21:19;;;;;;;0.63;0.50;;;;;;;1.65;50.35;101753.91;5056048;28;20575;-66
2021/03/08 09:23:46;;;;;;;0.60;0.43;;;;;;;1.75;49.34;101766.09;5058990;28;20211;-66
2021/03/08 09:26:15;;;;;;;1.37;0.40;;;;;;;1.72;49.58;101765.28;5055136;28;20364;-66
2021/03/08 09:28:48;;;;;;;0.87;0.50;;;;;;;1.73;51.92;101737.91;5056646;28;20212;-66
2021/03/08 09:31:23;;;;;;;0.40;0.40;;;;;;;1.65;49.95;101759.19;5053689;28;20528;-66
2021/03/08 09:33:51;;;;;;;0.60;0.60;;;;;;;1.75;49.54;101771.41;5058426;28;20388;-66
2021/03/08 09:36:20;;;;;;;0.50;0.47;;;;;;;1.83;49.10;101780.09;5038048;28;20204;-66
2021/03/08 09:38:49;;;;;;;0.50;0.33;;;;;;;1.93;50.28;101783.50;5058739;28;20375;-66
2021/03/08 09:41:17;;;;;;;0.57;0.57;;;;;;;2.00;51.48;101779.84;5060331;28;20204;-66
2021/03/08 09:43:44;;;;;;;0.30;0.30;;;;;;;1.96;51.27;101764.03;5064676;28;20261;-66
2021/03/08 09:46:14;;;;;;;0.57;0.57;;;;;;;2.12;51.77;101781.41;5063818;28;20192;-66
2021/03/08 09:48:44;;;;;;;0.73;0.50;;;;;;;2.13;51.51;101791.97;5060379;28;20282;-65
2021/03/08 09:51:13;;;;;;;2.87;0.30;;;;;;;2.18;51.66;101786.63;5058036;28;20205;-65
2021/03/08 09:53:42;;;;;;;0.43;0.43;;;;;;;2.23;50.98;101789.22;5056801;28;20233;-65
2021/03/08 09:56:11;;;;;;;2.80;0.93;;;;;;;2.11;50.66;101788.47;5057037;28;20213;-66
2021/03/08 09:58:41;;;;;;;0.30;0.30;;;;;;;1.91;48.65;101787.94;5055338;28;20676;-64
2021/03/08 10:01:13;;;;;;;0.50;0.40;;;;;;;1.79;46.08;101791.63;5054120;28;20215;-66
2021/03/08 10:03:41;;;;;;;1.90;0.50;;;;;;;1.62;47.97;101753.09;5040919;28;20208;-66
2021/03/08 10:06:21;;;;;;;2.90;0.60;;;;;;;1.99;47.66;101801.06;5060696;28;20197;-66
2021/03/08 10:08:48;;;;;;;0.30;0.30;;;;;;;1.81;46.22;101807.50;5061851;28;20290;-66
2021/03/08 10:11:27;;;;;;;0.30;0.30;;;;;;;1.70;45.13;101794.41;5061215;28;20290;-66
2021/03/08 10:13:55;;;;;;;0.60;0.40;;;;;;;1.81;46.83;101787.19;5060542;28;20222;-66
2021/03/08 10:16:25;;;;;;;0.20;0.20;;;;;;;1.37;45.91;101728.72;5053943;28;20246;-66
2021/03/08 10:18:53;;;;;;;0.30;0.30;;;;;;;2.01;47.18;101797.50;5059854;28;20208;-66
2021/03/08 10:21:21;;;;;;;0.50;0.40;;;;;;;1.84;45.16;101788.94;5066797;28;20218;-65
2021/03/08 10:23:49;;;;;;;0.40;0.40;;;;;;;1.82;45.87;101786.28;5062646;28;20738;-66
2021/03/08 10:26:18;;;;;;;0.67;0.57;;;;;;;2.03;45.86;101797.47;5060274;28;20240;-67
2021/03/08 10:28:49;;;;;;;0.40;0.40;;;;;;;1.91;45.58;101769.41;5054675;28;20673;-65
2021/03/08 10:31:19;;;;;;;0.30;0.30;;;;;;;2.07;45.07;101791.22;5056867;28;20287;-66
2021/03/08 10:33:49;;;;;;;3.80;0.37;;;;;;;1.96;46.08;101767.56;5056285;28;20592;-67
2021/03/08 10:36:18;;;;;;;0.30;0.30;;;;;;;2.18;45.04;101791.94;5051006;28;20208;-66
2021/03/08 10:38:52;;;;;;;0.60;0.60;;;;;;;2.28;46.10;101795.31;5059763;28;20548;-66
2021/03/08 10:41:20;;;;;;;0.23;0.23;;;;;;;2.35;45.46;101791.63;5053098;28;20287;-66
2021/03/08 10:43:48;;;;;;;0.40;0.40;;;;;;;2.09;42.54;101790.28;5053676;28;20208;-66
2021/03/08 10:46:15;;;;;;;0.20;0.20;;;;;;;2.10;42.74;101789.38;5032155;28;20299;-66
2021/03/08 10:48:56;;;;;;;2.33;0.50;;;;;;;2.05;42.53;101791.25;5056169;28;20219;-66
2021/03/08 10:51:24;;;;;;;2.13;0.40;;;;;;;2.11;42.56;101796.44;5058981;28;20231;-66
2021/03/08 10:53:56;;;;;;;0.40;0.40;;;;;;;2.13;42.23;101799.06;5053997;28;20225;-65
2021/03/08 10:56:23;;;;;;;0.33;0.33;;;;;;;2.25;42.99;101792.72;5060255;28;20255;-66
2021/03/08 10:58:52;;;;;;;0.20;0.20;;;;;;;2.35;43.28;101797.81;5060592;28;21728;-67
2021/03/08 11:01:19;;;;;;;0.63;0.60;;;;;;;2.44;44.30;101802.94;5053224;28;20207;-67
2021/03/08 11:03:47;;;;;;;0.40;0.40;;;;;;;2.61;46.22;101797.38;5048628;28;20291;-67
2021/03/08 11:06:16;;;;;;;4.10;0.67;;;;;;;2.47;42.59;101799.41;5055586;28;20721;-67
2021/03/08 11:08:56;;;;;;;0.20;0.20;;;;;;;2.55;41.79;101804.56;5054601;28;20276;-66
2021/03/08 11:11:27;;;;;;;0.43;0.30;;;;;;;2.37;41.32;101800.44;5050955;28;20215;-67
2021/03/08 11:13:59;;;;;;;0.30;0.30;;;;;;;2.48;41.84;101801.16;5058440;28;20217;-67
2021/03/08 11:16:26;;;;;;;0.43;0.43;;;;;;;2.51;41.49;101797.56;5059432;28;20229;-66
2021/03/08 11:18:55;;;;;;;279.90;120.93;;;;;;;2.41;41.23;101800.34;5069535;28;20207;-66
2021/03/08 11:21:30;;;;;;;51.63;19.23;;;;;;;2.59;42.10;101798.28;5066383;28;20195;-67
2021/03/08 11:24:16;;;;;;;14.03;5.83;;;;;;;2.96;47.91;101803.78;5054914;28;20250;-67
2021/03/08 11:27:03;;;;;;;0.57;0.57;;;;;;;2.90;41.69;101785.34;5057352;28;20270;-66
2021/03/08 11:29:32;;;;;;;1.10;0.60;;;;;;;2.86;42.74;101788.97;5059228;28;20564;-66
2021/03/08 11:31:59;;;;;;;0.40;0.40;;;;;;;2.78;41.30;101795.28;5062216;28;20270;-67
2021/03/08 11:34:40;;;;;;;0.57;0.50;;;;;;;2.74;40.52;101798.00;5056704;28;20221;-67
2021/03/08 11:37:10;;;;;;;0.30;0.30;;;;;;;2.79;41.21;101777.59;5049412;28;20670;-67
2021/03/08 11:39:39;;;;;;;0.30;0.30;;;;;;;2.98;40.50;101796.66;5060383;28;20776;-66
2021/03/08 11:42:07;;;;;;;0.77;0.73;;;;;;;2.80;39.99;101750.19;5058790;28;20202;-67
2021/03/08 11:44:35;;;;;;;0.30;0.30;;;;;;;3.07;40.18;101794.72;5038875;28;20243;-67
2021/03/08 11:47:03;;;;;;;5.67;0.67;;;;;;;3.33;41.00;101790.66;5047892;28;20581;-67